Time;durP1;ratioP1;P1;durP2;ratioP2;P2;SDS_P1;SDS_P2;PMS_P1;PMS_P2;Temp;Humidity;BMP_temperature;BMP_pressure;BME280_temperature;BME280_humidity;BME280_pressure;Samples;Min_cycle;Max_cycle;Signal;HPM_P1;HPM_P2
2022/11/18 07:23:27;;;;;;;6.30;4.73;;;;;;;4.59;96.16;148817.45;1840208;77;22736;-62
2022/11/18 07:25:55;;;;;;;5.53;4.10;;;;;;;4.66;95.75;148834.25;1856262;77;21000;-61
2022/11/18 07:28:22;;;;;;;6.22;4.62;;;;;;;4.82;95.33;148874.30;1859050;77;22061;-61
2022/11/18 07:30:49;;;;;;;5.97;4.40;;;;;;;4.93;94.83;148901.44;1859258;77;21468;-60
2022/11/18 07:33:16;;;;;;;5.70;4.12;;;;;;;5.05;94.13;148931.16;1859305;77;20917;-60
2022/11/18 07:35:43;;;;;;;5.85;4.60;;;;;;;5.12;93.48;148949.22;1859327;77;20859;-60
2022/11/18 07:38:10;;;;;;;4.55;3.85;;;;;;;5.24;92.37;148977.69;1859197;77;20972;-62
2022/11/18 07:40:37;;;;;;;6.30;4.20;;;;;;;5.24;92.37;148977.69;1859512;77;21809;-63
2022/11/18 07:43:04;;;;;;;6.20;4.40;;;;;;;5.35;91.61;149006.09;1841586;76;21010;-60
2022/11/18 07:45:32;;;;;;;7.35;4.80;;;;;;;5.35;91.61;149006.09;1826361;78;20921;-59
2022/11/18 07:48:00;;;;;;;6.67;4.65;;;;;;;5.42;91.50;149022.91;1826354;78;21381;-59
2022/11/18 07:50:27;;;;;;;5.17;4.20;;;;;;;5.50;91.18;149043.56;1826218;78;21003;-60
2022/11/18 07:52:56;;;;;;;6.47;4.70;;;;;;;5.57;90.77;149060.39;1874555;76;21445;-59
2022/11/18 07:55:23;;;;;;;6.40;4.60;;;;;;;5.61;90.47;149070.72;1879671;75;20921;-59
2022/11/18 07:57:50;;;;;;;6.45;4.65;;;;;;;5.69;89.93;149090.12;1879548;76;21437;-59
2022/11/18 08:00:18;;;;;;;7.67;5.00;;;;;;;5.71;89.68;149096.59;1879408;75;21008;-59
2022/11/18 08:02:50;;;;;;;9.18;4.80;;;;;;;5.76;89.10;149106.94;1879272;76;21078;-59
2022/11/18 08:05:17;;;;;;;6.30;4.47;;;;;;;5.78;88.92;149112.11;1879115;76;21820;-61
2022/11/18 08:07:45;;;;;;;11.53;7.33;;;;;;;5.83;88.88;149125.02;1863146;75;21103;-60
2022/11/18 08:10:13;;;;;;;7.15;5.30;;;;;;;5.87;88.87;149135.41;1823010;77;20978;-64
2022/11/18 08:12:39;;;;;;;7.92;4.87;;;;;;;5.93;88.67;149150.91;1813839;77;21463;-60
2022/11/18 08:15:09;;;;;;;6.47;4.87;;;;;;;5.99;88.30;149165.16;1787353;79;20955;-60
2022/11/18 08:17:37;;;;;;;9.40;6.00;;;;;;;6.05;87.97;149179.39;1820874;77;21424;-60
2022/11/18 08:20:05;;;;;;;7.60;5.65;;;;;;;6.10;87.42;149192.36;1820318;77;21024;-56
2022/11/18 08:22:35;;;;;;;6.55;4.53;;;;;;;6.15;86.88;149206.55;1779629;79;21034;-59
2022/11/18 08:25:21;;;;;;;5.30;4.45;;;;;;;6.15;86.88;149206.55;1866508;76;24183;-57
2022/11/18 08:27:53;;;;;;;;;;;;;;;6.21;86.82;149220.78;1818450;76;21385;-57
2022/11/18 08:30:25;;;;;;;4.83;3.77;;;;;;;6.28;86.48;149238.88;1837968;76;21888;-60
2022/11/18 08:32:51;;;;;;;6.80;5.17;;;;;;;6.33;86.26;149249.27;1830194;76;21022;-56
2022/11/18 08:35:18;;;;;;;9.00;5.58;;;;;;;6.38;85.85;149262.19;1834530;76;21066;-55
2022/11/18 08:37:45;;;;;;;6.25;4.45;;;;;;;6.43;85.69;149275.11;1841619;76;21038;-57
2022/11/18 08:40:12;;;;;;;6.03;4.55;;;;;;;6.46;85.62;149282.88;1844244;75;21011;-57
2022/11/18 08:42:39;;;;;;;5.42;4.25;;;;;;;6.51;85.42;149295.80;1787724;78;21573;-58
2022/11/18 08:45:07;;;;;;;7.30;4.78;;;;;;;6.57;85.08;149311.34;1855253;76;21028;-60
2022/11/18 08:47:35;;;;;;;9.98;5.70;;;;;;;6.61;84.65;149319.11;1848273;76;20992;-60
2022/11/18 08:50:04;;;;;;;7.17;5.05;;;;;;;6.62;84.46;149321.69;1826968;76;21040;-60
2022/11/18 08:52:31;;;;;;;6.50;4.70;;;;;;;6.71;84.36;149344.97;1830970;76;21036;-62
2022/11/18 08:54:58;;;;;;;6.53;4.40;;;;;;;6.71;84.36;149344.97;1834358;76;21815;-62
2022/11/18 08:57:25;;;;;;;5.08;4.10;;;;;;;6.72;83.93;149348.87;1835426;76;21071;-61
2022/11/18 08:59:53;;;;;;;6.60;4.87;;;;;;;6.76;83.87;149357.94;1796342;77;20987;-60
2022/11/18 09:02:21;;;;;;;5.45;4.22;;;;;;;6.81;83.74;149370.88;1832768;76;20974;-59
2022/11/18 09:04:51;;;;;;;6.72;4.97;;;;;;;6.88;83.69;149387.70;1832912;76;21066;-60
2022/11/18 09:07:20;;;;;;;4.40;3.67;;;;;;;6.95;82.73;149405.81;1844911;76;22107;-60
2022/11/18 09:09:47;;;;;;;5.25;3.87;;;;;;;6.95;82.73;149405.81;1846434;76;21028;-60
2022/11/18 09:12:16;;;;;;;6.35;4.47;;;;;;;6.96;82.84;149407.08;1838986;76;21024;-60
2022/11/18 09:14:44;;;;;;;8.35;5.05;;;;;;;6.99;82.60;149414.88;1859676;76;21040;-61
